createdAt,value
2018-01-30T00:00:19.557Z,0.00
2018-01-30T00:01:18.965Z,0.00
2018-01-30T00:02:18.796Z,0.00
2018-01-30T00:03:18.756Z,0.00
2018-01-30T00:04:18.737Z,0.00
2018-01-30T00:05:18.722Z,0.00
2018-01-30T00:06:18.826Z,0.00
2018-01-30T00:07:18.852Z,0.00
2018-01-30T00:08:18.682Z,0.00
2018-01-30T00:09:19.848Z,0.00
2018-01-30T00:10:18.629Z,0.00
2018-01-30T00:11:18.953Z,0.00
2018-01-30T00:12:18.677Z,0.00
2018-01-30T00:13:19.606Z,0.00
2018-01-30T00:14:18.660Z,0.00
2018-01-30T00:15:18.561Z,0.00
2018-01-30T00:16:24.290Z,0.00
2018-01-30T00:17:18.503Z,0.00
2018-01-30T00:18:18.508Z,0.00
2018-01-30T00:19:20.285Z,0.00
2018-01-30T00:21:51.150Z,0.00
2018-01-30T00:21:58.652Z,0.00
2018-01-30T00:30:05.862Z,0.00
2018-01-30T00:41:44.992Z,0.00
2018-01-30T00:42:04.039Z,0.00
2018-01-30T00:43:04.875Z,0.00
2018-01-30T00:44:20.855Z,0.00
2018-01-30T00:45:04.059Z,0.00
2018-01-30T00:46:03.985Z,0.00
2018-01-30T00:47:05.024Z,0.00
2018-01-30T00:55:13.214Z,0.00
2018-01-30T00:56:03.664Z,0.00
2018-01-30T01:23:23.182Z,0.00
2018-01-30T01:35:32.238Z,0.00
2018-01-30T01:36:05.998Z,0.00
2018-01-30T01:45:51.626Z,0.00
2018-01-30T01:46:26.102Z,0.00
2018-01-30T01:47:25.481Z,0.00
2018-01-30T01:59:42.405Z,0.00
2018-01-30T02:00:16.946Z,0.00
2018-01-30T02:02:43.087Z,0.00
2018-01-30T02:03:10.615Z,0.00
2018-01-30T02:09:30.001Z,0.00
2018-01-30T02:12:20.335Z,0.00
2018-01-30T02:19:09.483Z,0.00
2018-01-30T02:19:57.513Z,0.00
2018-01-30T02:29:34.480Z,0.00
2018-01-30T02:30:02.486Z,0.00
2018-01-30T02:52:47.819Z,0.00
2018-01-30T03:22:05.282Z,0.00
2018-01-30T03:23:48.927Z,0.00
2018-01-30T03:38:18.144Z,0.00
2018-01-30T03:39:02.037Z,0.00
2018-01-30T03:51:54.925Z,0.00
2018-01-30T03:52:27.848Z,0.00
2018-01-30T03:55:36.638Z,0.00
2018-01-30T03:56:37.543Z,0.00
2018-01-30T03:57:36.578Z,0.00
2018-01-30T03:58:36.757Z,0.00
2018-01-30T03:59:36.533Z,0.00
2018-01-30T04:11:55.492Z,0.00
2018-01-30T05:41:05.599Z,0.00
2018-01-30T05:42:05.469Z,0.00
2018-01-30T05:43:05.444Z,0.00
2018-01-30T05:56:08.412Z,0.00
2018-01-30T05:56:48.419Z,0.00
2018-01-30T06:03:05.787Z,0.00
2018-01-30T06:04:05.671Z,0.00
2018-01-30T06:05:05.652Z,0.00
2018-01-30T06:06:19.836Z,0.00
2018-01-30T06:07:05.620Z,0.00
2018-01-30T06:11:40.034Z,0.00
2018-01-30T06:12:07.565Z,0.00
2018-01-30T06:12:40.540Z,0.00
2018-01-30T06:15:35.624Z,0.00
2018-01-30T06:16:35.570Z,0.00
2018-01-30T06:17:35.555Z,0.00
2018-01-30T06:27:37.008Z,0.00
2018-01-30T06:28:15.463Z,0.00
2018-01-30T06:30:12.685Z,0.00
2018-01-30T06:30:13.573Z,0.00
2018-01-30T06:31:13.557Z,0.00
2018-01-30T06:32:13.652Z,0.00
2018-01-30T06:33:20.560Z,0.00
2018-01-30T06:34:24.355Z,0.00
2018-01-30T06:35:13.483Z,0.00
2018-01-30T06:36:13.462Z,0.00
2018-01-30T06:45:56.736Z,0.00
2018-01-30T06:46:52.985Z,0.00
2018-01-30T06:47:52.960Z,0.00
2018-01-30T06:48:53.040Z,0.00
2018-01-30T06:52:52.964Z,0.00
2018-01-30T07:12:16.551Z,0.00
2018-01-30T07:13:13.894Z,0.00
2018-01-30T07:16:01.544Z,0.00
2018-01-30T07:17:01.529Z,0.00
2018-01-30T07:18:01.473Z,0.00
2018-01-30T07:20:30.149Z,5.63
2018-01-30T07:20:57.646Z,5.63
2018-01-30T07:21:30.595Z,5.63
2018-01-30T07:22:30.582Z,5.63
2018-01-30T07:23:31.174Z,5.63
2018-01-30T07:30:16.484Z,5.63
2018-01-30T07:40:40.688Z,11.25
2018-01-30T07:41:39.643Z,16.88
2018-01-30T07:42:39.618Z,16.88
2018-01-30T07:43:39.602Z,16.88
2018-01-30T07:48:14.873Z,28.13
2018-01-30T07:49:14.813Z,22.50
2018-01-30T07:54:00.038Z,28.13
2018-01-30T07:56:34.628Z,22.50
2018-01-30T07:57:34.592Z,28.13
2018-01-30T07:58:34.546Z,28.13
2018-01-30T07:59:34.525Z,28.13
2018-01-30T08:00:34.495Z,39.38
2018-01-30T08:01:34.492Z,39.38
2018-01-30T08:05:30.179Z,39.38
2018-01-30T08:06:07.285Z,45.00
2018-01-30T08:07:07.278Z,45.00
2018-01-30T08:08:18.398Z,39.38
2018-01-30T08:09:07.230Z,33.75
2018-01-30T08:13:49.870Z,56.25
2018-01-30T08:17:06.618Z,67.50
2018-01-30T09:25:53.899Z,90.00
2018-01-30T09:26:49.723Z,73.13
2018-01-30T10:22:42.384Z,185.63
2018-01-30T10:23:32.223Z,191.25
2018-01-30T10:24:32.223Z,135.00
2018-01-30T10:25:32.191Z,146.25
2018-01-30T10:26:32.178Z,112.50
2018-01-30T10:27:32.754Z,146.25
2018-01-30T10:36:36.400Z,185.63
2018-01-30T10:37:14.437Z,196.88
2018-01-30T10:38:14.420Z,174.38
2018-01-30T10:39:14.400Z,185.63
2018-01-30T10:40:14.546Z,196.88
2018-01-30T10:41:14.750Z,213.75
2018-01-30T10:42:14.721Z,174.38
2018-01-30T10:43:14.452Z,180.00
2018-01-30T10:44:14.311Z,168.75
2018-01-30T10:45:14.689Z,208.13
2018-01-30T10:46:14.292Z,241.88
2018-01-30T11:01:43.867Z,320.63
2018-01-30T11:15:59.995Z,106.88
2018-01-30T11:16:59.424Z,112.50
2018-01-30T11:17:59.372Z,73.13
2018-01-30T11:18:59.397Z,118.13
2018-01-30T11:19:59.343Z,135.00
2018-01-30T11:48:56.529Z,264.38
2018-01-30T11:49:15.915Z,292.50
2018-01-30T11:50:16.731Z,275.63
2018-01-30T11:51:16.401Z,247.50
2018-01-30T11:52:16.505Z,202.50
2018-01-30T11:56:13.020Z,140.63
2018-01-30T11:57:11.433Z,135.00
2018-01-30T11:58:11.425Z,135.00
2018-01-30T12:04:50.627Z,146.25
2018-01-30T12:05:44.586Z,185.63
2018-01-30T12:06:44.123Z,213.75
2018-01-30T12:07:44.696Z,225.00
2018-01-30T12:08:44.488Z,135.00
2018-01-30T12:22:01.443Z,135.00
2018-01-30T12:23:22.744Z,101.25
2018-01-30T12:23:51.171Z,106.88
2018-01-30T12:40:24.275Z,129.38
2018-01-30T12:58:25.952Z,202.50
2018-01-30T12:59:24.057Z,191.25
2018-01-30T13:00:24.066Z,174.38
2018-01-30T13:01:24.181Z,163.13
2018-01-30T13:02:24.132Z,168.75
2018-01-30T13:03:23.796Z,281.25
2018-01-30T13:04:23.777Z,286.88
2018-01-30T13:05:23.821Z,247.50
2018-01-30T13:06:23.749Z,236.25
2018-01-30T13:07:23.730Z,219.38
2018-01-30T13:08:23.745Z,219.38
2018-01-30T13:09:23.695Z,185.63
2018-01-30T13:10:23.709Z,191.25
2018-01-30T13:11:23.675Z,157.50
2018-01-30T13:12:23.659Z,140.63
2018-01-30T13:13:23.635Z,151.88
2018-01-30T13:14:23.913Z,163.13
2018-01-30T13:15:23.615Z,151.88
2018-01-30T13:16:23.674Z,146.25
2018-01-30T13:17:23.617Z,140.63
2018-01-30T13:18:23.561Z,135.00
2018-01-30T13:19:23.835Z,135.00
2018-01-30T13:20:23.536Z,140.63
2018-01-30T13:21:23.502Z,151.88
2018-01-30T13:22:23.583Z,157.50
2018-01-30T13:23:23.484Z,163.13
2018-01-30T13:24:23.466Z,163.13
2018-01-30T13:25:24.753Z,168.75
2018-01-30T13:26:23.425Z,191.25
2018-01-30T13:27:23.584Z,202.50
2018-01-30T13:28:23.411Z,202.50
2018-01-30T13:29:23.415Z,202.50
2018-01-30T13:30:23.361Z,213.75
2018-01-30T13:31:23.360Z,230.63
2018-01-30T13:32:23.576Z,264.38
2018-01-30T14:24:49.725Z,264.38
2018-01-30T14:25:35.619Z,258.75
2018-01-30T14:26:35.564Z,247.50
2018-01-30T14:27:35.548Z,275.63
2018-01-30T14:28:36.119Z,292.50
2018-01-30T14:29:35.669Z,286.88
2018-01-30T14:30:35.574Z,270.00
2018-01-30T14:31:35.541Z,275.63
2018-01-30T14:32:35.632Z,253.13
2018-01-30T14:33:35.844Z,258.75
2018-01-30T14:34:35.483Z,225.00
2018-01-30T14:35:35.436Z,247.50
2018-01-30T14:36:35.504Z,230.63
2018-01-30T14:40:26.592Z,191.25
2018-01-30T14:41:26.605Z,191.25
2018-01-30T14:42:26.558Z,213.75
2018-01-30T14:43:26.541Z,191.25
2018-01-30T14:44:26.552Z,230.63
2018-01-30T14:45:26.505Z,157.50
2018-01-30T14:46:26.485Z,157.50
2018-01-30T14:47:26.508Z,151.88
2018-01-30T14:48:26.576Z,135.00
2018-01-30T14:49:26.526Z,140.63
2018-01-30T14:50:26.442Z,135.00
2018-01-30T14:51:26.576Z,118.13
2018-01-30T14:52:26.443Z,118.13
2018-01-30T14:53:26.516Z,106.88
2018-01-30T14:54:26.408Z,101.25
2018-01-30T16:15:09.343Z,5.63
2018-01-30T16:16:07.424Z,5.63
2018-01-30T16:17:07.414Z,0.00
2018-01-30T16:18:07.393Z,0.00
2018-01-30T16:19:07.385Z,0.00
2018-01-30T16:20:07.400Z,0.00
2018-01-30T16:21:07.351Z,0.00
2018-01-30T16:22:07.348Z,0.00
2018-01-30T16:23:07.329Z,0.00
2018-01-30T16:24:07.308Z,0.00
2018-01-30T16:25:07.311Z,0.00
2018-01-30T16:33:11.317Z,0.00
2018-01-30T16:34:09.921Z,0.00
2018-01-30T16:35:09.871Z,0.00
2018-01-30T16:36:09.868Z,0.00
2018-01-30T16:37:09.844Z,0.00
2018-01-30T16:38:09.816Z,0.00
2018-01-30T16:39:09.812Z,0.00
2018-01-30T16:40:09.837Z,0.00
2018-01-30T16:41:09.762Z,0.00
2018-01-30T16:42:09.747Z,0.00
2018-01-30T16:43:09.733Z,0.00
2018-01-30T16:44:09.711Z,0.00
2018-01-30T16:45:09.698Z,0.00
2018-01-30T16:46:09.699Z,0.00
2018-01-30T16:47:09.673Z,0.00
2018-01-30T16:48:09.647Z,0.00
2018-01-30T16:49:09.698Z,0.00
2018-01-30T16:50:09.627Z,0.00
2018-01-30T16:51:09.622Z,0.00
2018-01-30T16:52:09.605Z,0.00
2018-01-30T16:53:09.564Z,0.00
2018-01-30T16:54:09.556Z,0.00
2018-01-30T16:55:09.571Z,0.00
2018-01-30T16:56:09.530Z,0.00
2018-01-30T16:57:09.840Z,0.00
2018-01-30T16:58:09.486Z,0.00
2018-01-30T16:59:09.474Z,0.00
2018-01-30T17:00:09.457Z,0.00
2018-01-30T17:01:09.430Z,0.00
2018-01-30T17:02:09.416Z,0.00
2018-01-30T17:03:09.434Z,0.00
2018-01-30T17:04:09.389Z,0.00
2018-01-30T17:05:09.371Z,0.00
2018-01-30T17:06:09.365Z,0.00
2018-01-30T17:07:09.343Z,0.00
2018-01-30T17:08:09.355Z,0.00
2018-01-30T17:09:09.298Z,0.00
2018-01-30T17:10:09.280Z,0.00
2018-01-30T17:11:09.262Z,0.00
2018-01-30T17:25:58.600Z,0.00
2018-01-30T17:26:55.486Z,0.00
2018-01-30T17:27:55.418Z,0.00
2018-01-30T17:28:55.398Z,0.00
2018-01-30T17:29:55.377Z,0.00
2018-01-30T17:30:55.356Z,0.00
2018-01-30T17:31:55.340Z,0.00
2018-01-30T17:32:55.339Z,0.00
2018-01-30T17:33:55.327Z,0.00
2018-01-30T17:34:55.297Z,0.00
2018-01-30T17:35:55.304Z,0.00
2018-01-30T17:36:55.279Z,0.00
2018-01-30T17:37:55.302Z,0.00
2018-01-30T17:38:55.221Z,0.00
2018-01-30T17:39:55.244Z,0.00
2018-01-30T17:40:55.185Z,0.00
2018-01-30T17:41:55.171Z,0.00
2018-01-30T17:42:55.183Z,0.00
2018-01-30T17:43:55.171Z,0.00
2018-01-30T17:44:55.138Z,0.00
2018-01-30T17:45:55.114Z,0.00
2018-01-30T17:46:55.116Z,0.00
2018-01-30T17:47:55.073Z,0.00
2018-01-30T17:48:55.089Z,0.00
2018-01-30T17:50:20.838Z,0.00
2018-01-30T17:50:55.013Z,0.00
2018-01-30T17:51:55.039Z,0.00
2018-01-30T17:52:54.979Z,0.00
2018-01-30T17:53:54.961Z,0.00
2018-01-30T17:54:54.948Z,0.00
2018-01-30T17:55:55.272Z,0.00
2018-01-30T17:56:54.919Z,0.00
2018-01-30T17:57:54.895Z,0.00
2018-01-30T17:58:54.883Z,0.00
2018-01-30T17:59:54.862Z,0.00
2018-01-30T18:00:54.834Z,0.00
2018-01-30T18:01:54.865Z,0.00
2018-01-30T18:02:54.814Z,0.00
2018-01-30T18:03:54.789Z,0.00
2018-01-30T18:04:54.767Z,0.00
2018-01-30T18:05:54.756Z,0.00
2018-01-30T18:06:54.751Z,0.00
2018-01-30T18:07:54.729Z,0.00
2018-01-30T18:08:54.708Z,0.00
2018-01-30T18:09:54.698Z,0.00
2018-01-30T18:10:54.674Z,0.00
2018-01-30T18:11:54.820Z,0.00
2018-01-30T18:12:54.662Z,0.00
2018-01-30T18:13:54.660Z,0.00
2018-01-30T18:14:54.663Z,0.00
2018-01-30T18:15:54.595Z,0.00
2018-01-30T18:16:54.583Z,0.00
2018-01-30T18:17:54.564Z,0.00
2018-01-30T18:18:54.652Z,0.00
2018-01-30T18:19:54.531Z,0.00
2018-01-30T18:20:54.501Z,0.00
2018-01-30T18:21:54.504Z,0.00
2018-01-30T18:22:54.920Z,0.00
2018-01-30T18:23:54.451Z,0.00
2018-01-30T18:24:54.461Z,0.00
2018-01-30T18:25:54.424Z,0.00
2018-01-30T18:26:54.401Z,0.00
2018-01-30T18:38:17.511Z,0.00
2018-01-30T18:39:17.466Z,0.00
2018-01-30T18:40:17.441Z,0.00
2018-01-30T18:41:17.433Z,0.00
2018-01-30T18:42:17.397Z,0.00
2018-01-30T18:43:17.397Z,0.00
2018-01-30T18:44:17.402Z,0.00
2018-01-30T18:45:17.362Z,0.00
2018-01-30T18:46:17.340Z,0.00
2018-01-30T18:47:17.334Z,0.00
2018-01-30T18:48:17.314Z,0.00
2018-01-30T18:49:17.312Z,0.00
2018-01-30T18:50:17.280Z,0.00
2018-01-30T18:51:17.312Z,0.00
2018-01-30T18:52:17.228Z,0.00
2018-01-30T18:53:17.220Z,0.00
2018-01-30T18:54:17.209Z,0.00
2018-01-30T18:55:17.180Z,0.00
2018-01-30T18:56:17.164Z,0.00
2018-01-30T18:57:17.160Z,0.00
2018-01-30T18:58:17.136Z,0.00
2018-01-30T18:59:17.112Z,0.00
2018-01-30T19:00:17.101Z,0.00
2018-01-30T19:01:17.083Z,0.00
2018-01-30T19:02:17.106Z,0.00
2018-01-30T19:03:17.044Z,0.00
2018-01-30T19:04:17.027Z,0.00
2018-01-30T19:05:17.013Z,0.00
2018-01-30T19:06:17.000Z,0.00
2018-01-30T19:07:16.969Z,0.00
2018-01-30T19:08:16.989Z,0.00
2018-01-30T19:09:16.947Z,0.00
2018-01-30T19:10:16.921Z,0.00
2018-01-30T19:11:16.923Z,0.00
2018-01-30T19:12:16.895Z,0.00
2018-01-30T19:13:16.911Z,0.00
2018-01-30T19:14:16.849Z,0.00
2018-01-30T19:15:16.855Z,0.00
2018-01-30T19:16:16.825Z,0.00
2018-01-30T19:17:16.822Z,0.00
2018-01-30T19:18:16.832Z,0.00
2018-01-30T19:19:16.774Z,0.00
2018-01-30T19:20:16.761Z,0.00
2018-01-30T19:21:16.747Z,0.00
2018-01-30T19:22:16.729Z,0.00
2018-01-30T19:23:16.746Z,0.00
2018-01-30T19:24:16.684Z,0.00
2018-01-30T19:25:16.669Z,0.00
2018-01-30T19:26:16.656Z,0.00
2018-01-30T19:27:16.631Z,0.00
2018-01-30T19:28:17.577Z,0.00
2018-01-30T19:29:16.671Z,0.00
2018-01-30T19:30:16.587Z,0.00
2018-01-30T19:31:16.572Z,0.00
2018-01-30T19:32:16.555Z,0.00
2018-01-30T19:33:16.535Z,0.00
2018-01-30T19:34:16.525Z,0.00
2018-01-30T19:35:16.556Z,0.00
2018-01-30T19:36:16.485Z,0.00
2018-01-30T19:37:16.470Z,0.00
2018-01-30T19:38:16.449Z,0.00
2018-01-30T19:39:16.451Z,0.00
2018-01-30T19:40:16.416Z,0.00
2018-01-30T19:41:16.402Z,0.00
2018-01-30T19:42:16.378Z,0.00
2018-01-30T19:43:16.366Z,0.00
2018-01-30T19:44:16.385Z,0.00
2018-01-30T19:45:16.327Z,0.00
2018-01-30T19:46:16.312Z,0.00
2018-01-30T19:47:16.311Z,0.00
2018-01-30T19:48:16.270Z,0.00
2018-01-30T19:49:16.330Z,0.00
2018-01-30T19:50:16.240Z,0.00
2018-01-30T19:51:16.225Z,0.00
2018-01-30T19:52:16.201Z,0.00
2018-01-30T19:53:16.196Z,0.00
2018-01-30T19:54:16.165Z,0.00
2018-01-30T19:55:16.471Z,0.00
2018-01-30T19:56:16.146Z,0.00
2018-01-30T19:57:16.122Z,0.00
2018-01-30T19:58:16.097Z,0.00
2018-01-30T19:59:16.086Z,0.00
2018-01-30T20:00:16.073Z,0.00
2018-01-30T20:01:16.075Z,0.00
2018-01-30T20:02:16.036Z,0.00
2018-01-30T20:03:16.023Z,0.00
2018-01-30T20:04:16.015Z,0.00
2018-01-30T20:05:16.013Z,0.00
2018-01-30T20:06:15.965Z,0.00
2018-01-30T20:07:15.954Z,0.00
2018-01-30T20:08:15.934Z,0.00
2018-01-30T20:09:15.923Z,0.00
2018-01-30T20:10:15.935Z,0.00
2018-01-30T20:11:15.883Z,0.00
2018-01-30T20:12:16.158Z,0.00
2018-01-30T20:13:15.840Z,0.00
2018-01-30T20:14:15.846Z,0.00
2018-01-30T20:15:15.812Z,0.00
2018-01-30T20:16:15.795Z,0.00
2018-01-30T20:17:15.780Z,0.00
2018-01-30T20:18:15.775Z,0.00
2018-01-30T20:19:15.750Z,0.00
2018-01-30T20:20:16.584Z,0.00
2018-01-30T20:21:15.721Z,0.00
2018-01-30T20:22:15.686Z,0.00
2018-01-30T20:23:15.681Z,0.00
2018-01-30T20:24:16.585Z,0.00
2018-01-30T20:25:15.645Z,0.00
2018-01-30T20:26:15.628Z,0.00
2018-01-30T20:27:15.615Z,0.00
2018-01-30T20:28:16.584Z,0.00
2018-01-30T20:29:15.572Z,0.00
2018-01-30T20:30:15.621Z,0.00
2018-01-30T20:31:15.540Z,0.00
2018-01-30T20:32:15.527Z,0.00
2018-01-30T20:33:15.506Z,0.00
2018-01-30T20:34:15.521Z,0.00
2018-01-30T20:35:15.467Z,0.00
2018-01-30T20:36:15.479Z,0.00
2018-01-30T20:37:15.433Z,0.00
2018-01-30T20:38:15.410Z,0.00
2018-01-30T20:39:15.392Z,0.00
2018-01-30T20:40:15.385Z,0.00
2018-01-30T20:41:15.403Z,0.00
2018-01-30T20:42:15.346Z,0.00
2018-01-30T20:43:15.333Z,0.00
2018-01-30T20:44:16.087Z,0.00
2018-01-30T20:45:15.297Z,0.00
2018-01-30T20:46:15.314Z,0.00
2018-01-30T20:47:15.258Z,0.00
2018-01-30T20:48:15.262Z,0.00
2018-01-30T20:49:16.094Z,0.00
2018-01-30T20:50:15.212Z,0.00
2018-01-30T20:51:15.194Z,0.00
2018-01-30T20:52:15.168Z,0.00
2018-01-30T20:53:15.166Z,0.00
2018-01-30T20:54:15.141Z,0.00
2018-01-30T20:55:15.135Z,0.00
2018-01-30T20:56:15.105Z,0.00
2018-01-30T20:57:15.096Z,0.00
2018-01-30T20:58:15.067Z,0.00
2018-01-30T20:59:15.594Z,0.00
2018-01-30T21:00:15.098Z,0.00
2018-01-30T21:01:15.024Z,0.00
2018-01-30T21:02:14.997Z,0.00
2018-01-30T21:03:14.993Z,0.00
2018-01-30T21:04:14.965Z,0.00
2018-01-30T21:05:14.960Z,0.00
2018-01-30T21:06:14.962Z,0.00
2018-01-30T21:07:14.914Z,0.00
2018-01-30T21:08:14.952Z,0.00
2018-01-30T21:09:14.919Z,0.00
2018-01-30T21:10:14.864Z,0.00
2018-01-30T21:11:14.841Z,0.00
2018-01-30T21:12:14.831Z,0.00
2018-01-30T21:13:14.811Z,0.00
2018-01-30T21:14:14.818Z,0.00
2018-01-30T21:15:14.777Z,0.00
2018-01-30T21:16:15.588Z,0.00
2018-01-30T21:17:14.750Z,0.00
2018-01-30T21:18:14.724Z,0.00
2018-01-30T21:19:14.773Z,0.00
2018-01-30T21:20:14.702Z,0.00
2018-01-30T21:21:14.660Z,0.00
2018-01-30T21:22:14.666Z,0.00
2018-01-30T21:23:14.637Z,0.00
2018-01-30T21:24:14.623Z,0.00
2018-01-30T21:25:14.611Z,0.00
2018-01-30T21:26:15.100Z,0.00
2018-01-30T21:27:14.568Z,0.00
2018-01-30T21:28:14.553Z,0.00
2018-01-30T21:29:14.532Z,0.00
2018-01-30T21:30:14.565Z,0.00
2018-01-30T21:31:14.509Z,0.00
2018-01-30T21:32:14.490Z,0.00
2018-01-30T21:33:14.478Z,0.00
2018-01-30T21:34:14.469Z,0.00
2018-01-30T21:35:14.463Z,0.00
2018-01-30T21:36:14.424Z,0.00
2018-01-30T21:37:14.403Z,0.00
2018-01-30T21:38:14.422Z,0.00
2018-01-30T21:39:14.376Z,0.00
2018-01-30T21:40:14.411Z,0.00
2018-01-30T21:41:14.348Z,0.00
2018-01-30T21:42:14.315Z,0.00
2018-01-30T21:43:14.308Z,0.00
2018-01-30T21:44:14.270Z,0.00
2018-01-30T21:45:14.250Z,0.00
2018-01-30T21:46:14.278Z,0.00
2018-01-30T21:47:14.232Z,0.00
2018-01-30T21:48:14.220Z,0.00
2018-01-30T21:49:14.179Z,0.00
2018-01-30T21:50:14.485Z,0.00
2018-01-30T21:51:14.157Z,0.00
2018-01-30T21:52:14.142Z,0.00
2018-01-30T21:53:14.119Z,0.00
2018-01-30T21:54:18.398Z,0.00
2018-01-30T21:55:14.084Z,0.00
2018-01-30T21:56:14.100Z,0.00
2018-01-30T21:57:14.062Z,0.00
2018-01-30T21:58:14.123Z,0.00
2018-01-30T21:59:14.008Z,0.00
2018-01-30T22:00:14.005Z,0.00
2018-01-30T22:01:13.990Z,0.00
2018-01-30T22:02:14.013Z,0.00
2018-01-30T22:03:13.954Z,0.00
2018-01-30T22:04:13.940Z,0.00
2018-01-30T22:05:13.925Z,0.00
2018-01-30T22:06:13.900Z,0.00
2018-01-30T22:07:13.886Z,0.00
2018-01-30T22:08:13.872Z,0.00
2018-01-30T22:09:13.859Z,0.00
2018-01-30T22:10:13.866Z,0.00
2018-01-30T22:11:13.809Z,0.00
2018-01-30T22:12:13.803Z,0.00
2018-01-30T22:13:13.779Z,0.00
2018-01-30T22:14:13.766Z,0.00
2018-01-30T22:15:13.746Z,0.00
2018-01-30T22:16:13.725Z,0.00
2018-01-30T22:17:13.695Z,0.00
2018-01-30T22:18:13.684Z,0.00
2018-01-30T22:19:13.736Z,0.00
2018-01-30T22:20:13.656Z,0.00
2018-01-30T22:21:13.634Z,0.00
2018-01-30T22:22:13.610Z,0.00
2018-01-30T22:23:13.589Z,0.00
2018-01-30T22:24:13.564Z,0.00
2018-01-30T22:25:13.627Z,0.00
2018-01-30T22:26:13.540Z,0.00
2018-01-30T22:27:13.542Z,0.00
2018-01-30T22:28:13.517Z,0.00
2018-01-30T22:29:13.494Z,0.00
2018-01-30T22:30:13.461Z,0.00
2018-01-30T22:31:13.468Z,0.00
2018-01-30T22:32:13.428Z,0.00
2018-01-30T22:33:13.433Z,0.00
2018-01-30T22:34:13.400Z,0.00
2018-01-30T22:35:13.378Z,0.00
2018-01-30T22:36:13.380Z,0.00
2018-01-30T22:37:13.350Z,0.00
2018-01-30T22:38:13.335Z,0.00
2018-01-30T22:39:13.479Z,0.00
2018-01-30T22:40:13.596Z,0.00
2018-01-30T22:41:13.283Z,0.00
2018-01-30T22:42:13.260Z,0.00
2018-01-30T22:43:13.245Z,0.00
2018-01-30T22:44:13.236Z,0.00
2018-01-30T22:45:13.245Z,0.00
2018-01-30T22:46:13.199Z,0.00
